createdAt,value
2022-09-06T00:02:13.347Z,4.04
2022-09-06T00:04:40.134Z,4.25
2022-09-06T00:07:06.927Z,4.19
2022-09-06T00:09:33.621Z,4.24
2022-09-06T00:12:00.810Z,4.31
2022-09-06T00:14:27.465Z,4.34
2022-09-06T00:16:54.046Z,4.18
2022-09-06T00:19:20.881Z,4.20
2022-09-06T00:21:47.454Z,4.25
2022-09-06T00:24:17.030Z,4.23
2022-09-06T00:26:43.847Z,4.02
2022-09-06T00:29:11.264Z,4.43
2022-09-06T00:31:38.146Z,4.57
2022-09-06T00:34:04.661Z,4.21
2022-09-06T00:36:31.200Z,4.00
2022-09-06T00:38:58.554Z,4.06
2022-09-06T00:41:25.114Z,4.18
2022-09-06T00:43:59.192Z,4.42
2022-09-06T00:46:26.222Z,4.14
2022-09-06T00:48:55.021Z,4.20
2022-09-06T00:51:21.666Z,4.05
2022-09-06T00:53:50.684Z,4.17
2022-09-06T00:56:18.026Z,3.96
2022-09-06T00:58:44.844Z,4.32
2022-09-06T01:01:11.808Z,4.04
2022-09-06T01:03:38.700Z,3.97
2022-09-06T01:06:05.243Z,3.98
2022-09-06T01:08:31.913Z,4.38
2022-09-06T01:11:00.872Z,4.20
2022-09-06T01:13:27.692Z,4.10
2022-09-06T01:15:54.568Z,4.03
2022-09-06T01:18:21.528Z,4.44
2022-09-06T01:20:48.317Z,4.09
2022-09-06T01:23:15.124Z,3.98
2022-09-06T01:25:41.958Z,4.11
2022-09-06T01:28:09.007Z,4.13
2022-09-06T01:30:35.862Z,3.91
2022-09-06T01:33:02.442Z,4.44
2022-09-06T01:35:29.275Z,3.79
2022-09-06T01:37:58.171Z,4.40
2022-09-06T01:40:24.981Z,4.24
2022-09-06T01:42:54.185Z,4.19
2022-09-06T01:45:21.004Z,4.03
2022-09-06T01:47:47.920Z,3.89
2022-09-06T01:50:14.765Z,4.03
2022-09-06T01:52:44.169Z,4.32
2022-09-06T01:55:13.645Z,4.25
2022-09-06T01:57:40.274Z,4.21
2022-09-06T02:00:09.718Z,4.46
2022-09-06T02:02:36.617Z,4.31
2022-09-06T02:05:03.176Z,4.29
2022-09-06T02:07:30.472Z,3.89
2022-09-06T02:09:57.064Z,4.18
2022-09-06T02:12:23.785Z,4.26
2022-09-06T02:14:53.265Z,4.32
2022-09-06T02:17:20.101Z,4.32
2022-09-06T02:19:49.035Z,3.91
2022-09-06T02:22:15.920Z,4.25
2022-09-06T02:24:44.543Z,4.42
2022-09-06T02:27:13.634Z,4.15
2022-09-06T02:29:40.099Z,3.99
2022-09-06T02:32:06.714Z,4.24
2022-09-06T02:34:33.460Z,4.13
2022-09-06T02:37:02.491Z,4.28
2022-09-06T02:39:31.566Z,3.99
2022-09-06T02:41:58.241Z,4.25
2022-09-06T02:44:24.990Z,4.05
2022-09-06T02:46:57.092Z,3.91
2022-09-06T02:49:24.219Z,3.90
2022-09-06T02:51:50.954Z,4.37
2022-09-06T02:54:19.302Z,4.22
2022-09-06T02:56:50.203Z,4.04
2022-09-06T02:59:19.221Z,4.33
2022-09-06T03:01:45.869Z,4.03
2022-09-06T03:04:12.924Z,4.02
2022-09-06T03:06:39.462Z,4.09
2022-09-06T03:09:07.275Z,4.07
2022-09-06T03:11:33.840Z,4.22
2022-09-06T03:14:02.642Z,3.91
2022-09-06T03:16:30.123Z,4.03
2022-09-06T03:18:58.484Z,3.68
2022-09-06T03:21:25.435Z,4.38
2022-09-06T03:23:52.026Z,4.03
2022-09-06T03:26:18.831Z,3.97
2022-09-06T03:28:45.574Z,4.03
2022-09-06T03:31:14.707Z,4.03
2022-09-06T03:33:43.181Z,4.23
2022-09-06T03:36:09.799Z,3.92
2022-09-06T03:38:37.066Z,4.00
2022-09-06T03:41:05.919Z,4.18
2022-09-06T03:43:34.626Z,4.17
2022-09-06T03:46:01.243Z,4.06
2022-09-06T03:48:28.919Z,4.26
2022-09-06T03:50:55.850Z,4.40
2022-09-06T03:53:24.765Z,4.07
2022-09-06T03:55:52.350Z,4.02
2022-09-06T03:58:19.011Z,3.98
2022-09-06T04:00:48.195Z,3.81
2022-09-06T04:03:15.540Z,4.18
2022-09-06T04:05:42.066Z,4.11
2022-09-06T04:08:08.924Z,3.78
2022-09-06T04:10:35.762Z,3.89
2022-09-06T04:13:04.773Z,3.92
2022-09-06T04:15:31.853Z,4.04
2022-09-06T04:18:00.652Z,4.63
2022-09-06T04:20:30.367Z,4.34
2022-09-06T04:22:58.010Z,3.96
2022-09-06T04:25:24.830Z,3.87
2022-09-06T04:27:51.361Z,3.84
2022-09-06T04:30:20.054Z,3.75
2022-09-06T04:32:46.859Z,3.82
2022-09-06T04:35:14.362Z,4.12
2022-09-06T04:37:45.895Z,4.05
2022-09-06T04:40:12.766Z,4.27
2022-09-06T04:42:39.645Z,4.24
2022-09-06T04:45:06.558Z,4.55
2022-09-06T04:47:34.057Z,4.62
2022-09-06T04:50:08.087Z,4.37
2022-09-06T04:52:36.727Z,4.44
2022-09-06T04:55:03.601Z,4.69
2022-09-06T04:57:30.517Z,4.56
2022-09-06T04:59:59.528Z,4.23
2022-09-06T05:02:27.615Z,4.61
2022-09-06T05:07:36.063Z,4.30
2022-09-06T05:10:03.436Z,4.48
2022-09-06T05:12:30.488Z,4.80
2022-09-06T05:17:53.838Z,4.23
2022-09-06T05:20:21.338Z,4.16
2022-09-06T05:22:48.697Z,4.39
2022-09-06T05:25:15.916Z,4.16
2022-09-06T05:27:47.732Z,4.24
2022-09-06T05:30:17.482Z,4.19
2022-09-06T05:32:45.040Z,4.26
2022-09-06T05:35:17.878Z,4.14
2022-09-06T05:37:45.380Z,4.51
2022-09-06T05:40:14.631Z,4.37
2022-09-06T05:42:45.585Z,4.27
2022-09-06T05:45:15.554Z,4.28
2022-09-06T05:47:44.042Z,4.29
2022-09-06T05:50:12.040Z,4.21
2022-09-06T05:52:38.938Z,4.27
2022-09-06T05:55:06.615Z,4.47
2022-09-06T05:57:35.223Z,4.11
2022-09-06T06:00:05.186Z,4.64
2022-09-06T06:02:32.122Z,4.41
2022-09-06T06:05:00.838Z,4.78
2022-09-06T06:07:28.617Z,4.76
2022-09-06T06:09:56.399Z,4.51
2022-09-06T06:12:23.382Z,4.39
2022-09-06T06:14:52.908Z,4.16
2022-09-06T06:17:23.254Z,4.50
2022-09-06T06:19:53.266Z,4.12
2022-09-06T06:22:22.101Z,4.18
2022-09-06T06:25:00.141Z,4.17
2022-09-06T06:27:27.175Z,5.39
2022-09-06T06:29:54.914Z,3.89
2022-09-06T06:32:22.021Z,3.77
2022-09-06T06:34:49.873Z,3.66
2022-09-06T06:37:18.724Z,3.88
2022-09-06T06:39:46.588Z,3.90
2022-09-06T06:42:13.991Z,3.74
2022-09-06T06:44:42.153Z,5.01
2022-09-06T06:47:10.807Z,4.54
2022-09-06T06:49:38.000Z,4.00
2022-09-06T06:52:14.948Z,3.73
2022-09-06T06:54:42.040Z,3.99
2022-09-06T06:59:51.930Z,3.51
2022-09-06T07:02:19.655Z,3.62
2022-09-06T07:04:46.456Z,3.82
2022-09-06T07:07:30.983Z,3.61
2022-09-06T07:12:46.026Z,3.77
2022-09-06T07:15:14.999Z,3.85
2022-09-06T07:17:43.458Z,16.26
2022-09-06T07:22:37.797Z,5.94
2022-09-06T07:25:04.889Z,3.68
2022-09-06T07:27:48.027Z,3.70
2022-09-06T07:33:04.494Z,4.05
2022-09-06T07:35:34.973Z,3.75
2022-09-06T07:38:02.025Z,3.96
2022-09-06T07:40:34.381Z,4.20
2022-09-06T07:43:02.160Z,3.68
2022-09-06T07:45:29.329Z,3.67
2022-09-06T07:53:30.561Z,4.00
2022-09-06T07:56:02.482Z,3.97
2022-09-06T07:58:29.061Z,3.64
2022-09-06T08:00:58.129Z,4.25
2022-09-06T08:03:25.158Z,3.76
2022-09-06T08:06:14.482Z,4.10
2022-09-06T08:11:25.099Z,4.44
2022-09-06T08:13:51.868Z,4.19
2022-09-06T08:16:18.455Z,4.07
2022-09-06T08:18:46.101Z,4.15
2022-09-06T08:21:13.663Z,4.44
2022-09-06T08:23:44.944Z,4.41
2022-09-06T08:26:11.674Z,5.07
2022-09-06T08:28:39.855Z,5.13
2022-09-06T08:31:07.478Z,4.34
2022-09-06T08:33:39.183Z,4.80
2022-09-06T08:36:06.590Z,4.07
2022-09-06T08:38:34.442Z,3.63
2022-09-06T08:41:01.344Z,3.44
2022-09-06T08:43:35.964Z,2.79
2022-09-06T08:46:04.176Z,2.08
2022-09-06T08:48:31.022Z,2.24
2022-09-06T08:50:57.967Z,1.91
2022-09-06T08:53:24.941Z,2.33
2022-09-06T08:55:51.544Z,2.22
2022-09-06T08:58:19.223Z,2.44
2022-09-06T09:00:50.263Z,3.28
2022-09-06T09:03:21.145Z,2.43
2022-09-06T09:05:47.834Z,2.24
2022-09-06T09:08:18.077Z,2.31
2022-09-06T09:10:46.720Z,2.39
2022-09-06T09:13:15.064Z,2.48
2022-09-06T09:15:41.939Z,2.76
2022-09-06T09:18:13.151Z,2.24
2022-09-06T09:20:40.392Z,2.41
2022-09-06T09:23:06.955Z,2.54
2022-09-06T09:25:34.038Z,2.56
2022-09-06T09:28:05.423Z,2.63
2022-09-06T09:30:51.494Z,2.78
2022-09-06T09:33:20.633Z,2.87
2022-09-06T09:35:49.121Z,3.12
2022-09-06T09:38:18.326Z,2.91
2022-09-06T09:40:45.429Z,3.32
2022-09-06T09:43:20.620Z,2.84
2022-09-06T09:45:48.706Z,2.79
2022-09-06T09:48:17.264Z,3.18
2022-09-06T09:50:45.045Z,3.66
2022-09-06T09:53:14.119Z,3.29
2022-09-06T09:58:23.525Z,3.99
2022-09-06T10:00:50.404Z,3.32
2022-09-06T10:03:21.346Z,3.71
2022-09-06T10:05:51.273Z,3.41
2022-09-06T10:08:21.360Z,3.15
2022-09-06T10:10:51.271Z,3.12
2022-09-06T10:13:19.325Z,2.89
2022-09-06T10:15:49.851Z,3.27
2022-09-06T10:18:18.968Z,3.21
2022-09-06T10:20:46.528Z,3.50
2022-09-06T10:23:13.320Z,2.96
2022-09-06T10:25:46.242Z,3.38
2022-09-06T10:28:16.769Z,3.00
2022-09-06T10:30:50.446Z,3.30
2022-09-06T10:33:21.464Z,2.90
2022-09-06T10:35:49.509Z,3.37
2022-09-06T10:38:21.193Z,3.12
2022-09-06T10:40:49.935Z,3.12
2022-09-06T10:43:16.979Z,3.11
2022-09-06T10:45:44.159Z,2.95
2022-09-06T10:48:15.188Z,3.11
2022-09-06T10:50:43.831Z,3.18
2022-09-06T10:53:22.227Z,3.21
2022-09-06T10:55:53.657Z,4.57
2022-09-06T10:58:21.009Z,3.61
2022-09-06T11:00:54.074Z,3.73
2022-09-06T11:09:27.857Z,3.36
2022-09-06T11:11:55.816Z,3.63
2022-09-06T11:14:31.425Z,2.84
2022-09-06T11:17:01.690Z,3.10
2022-09-06T11:28:45.163Z,3.97
2022-09-06T11:34:06.468Z,3.38
2022-09-06T11:36:34.236Z,3.29
2022-09-06T11:41:44.384Z,3.33
2022-09-06T11:44:20.365Z,3.31
2022-09-06T11:47:01.035Z,3.66
2022-09-06T11:49:38.152Z,3.82
2022-09-06T11:52:08.543Z,3.66
2022-09-06T11:54:44.984Z,4.02
2022-09-06T11:57:20.642Z,4.15
2022-09-06T11:59:49.273Z,3.98
2022-09-06T12:02:27.359Z,3.75
2022-09-06T12:04:57.178Z,3.89
2022-09-06T12:10:14.539Z,3.98
2022-09-06T12:12:42.229Z,3.81
2022-09-06T12:18:20.722Z,4.23
2022-09-06T12:20:50.882Z,3.82
2022-09-06T12:23:17.924Z,3.85
2022-09-06T12:25:45.692Z,4.20
2022-09-06T12:28:14.653Z,3.86
2022-09-06T12:30:41.586Z,3.82
2022-09-06T12:33:09.111Z,3.87
2022-09-06T12:38:25.638Z,3.96
2022-09-06T12:40:52.700Z,3.91
2022-09-06T12:43:19.694Z,3.80
2022-09-06T12:45:46.776Z,3.95
2022-09-06T12:48:14.254Z,4.36
2022-09-06T12:50:45.791Z,4.08
2022-09-06T12:53:15.751Z,3.95
2022-09-06T12:55:47.046Z,3.86
2022-09-06T13:07:41.675Z,3.68
2022-09-06T13:13:24.061Z,4.03
2022-09-06T13:15:51.367Z,3.61
2022-09-06T13:18:20.279Z,3.59
2022-09-06T13:24:06.778Z,3.79
2022-09-06T13:26:34.111Z,4.00
2022-09-06T13:29:02.092Z,3.69
2022-09-06T13:31:32.676Z,4.27
2022-09-06T13:34:07.068Z,3.89
2022-09-06T13:36:44.928Z,3.34
2022-09-06T13:39:16.127Z,3.64
2022-09-06T13:41:49.671Z,3.66
2022-09-06T13:44:24.677Z,3.59
2022-09-06T13:46:54.802Z,3.54
2022-09-06T13:49:22.641Z,3.23
2022-09-06T13:51:50.527Z,3.79
2022-09-06T13:54:18.955Z,3.67
2022-09-06T13:56:46.158Z,3.43
2022-09-06T13:59:13.850Z,3.16
2022-09-06T14:01:43.104Z,3.69
2022-09-06T14:04:12.460Z,3.51
2022-09-06T14:06:46.647Z,3.48
2022-09-06T14:09:17.351Z,3.33
2022-09-06T14:11:48.392Z,3.46
2022-09-06T14:14:16.220Z,2.43
2022-09-06T14:16:44.938Z,3.03
2022-09-06T14:21:53.284Z,2.48
2022-09-06T14:24:26.286Z,2.16
2022-09-06T14:26:53.887Z,2.22
2022-09-06T14:29:21.888Z,2.09
2022-09-06T14:31:51.855Z,2.44
2022-09-06T14:34:26.185Z,3.28
2022-09-06T14:39:34.978Z,3.51
2022-09-06T14:44:44.260Z,3.09
2022-09-06T14:47:15.660Z,3.44
2022-09-06T14:52:28.886Z,3.17
2022-09-06T14:55:00.787Z,3.06
2022-09-06T14:57:33.396Z,2.99
2022-09-06T15:00:02.403Z,3.47
2022-09-06T15:02:39.457Z,3.24
2022-09-06T15:05:11.693Z,3.42
2022-09-06T15:10:25.957Z,4.38
2022-09-06T15:12:52.859Z,3.55
2022-09-06T15:15:33.128Z,3.41
2022-09-06T15:18:03.183Z,3.43
2022-09-06T15:20:35.204Z,2.99
2022-09-06T15:25:51.456Z,2.90
2022-09-06T15:28:22.519Z,3.08
2022-09-06T15:30:51.200Z,3.36
2022-09-06T15:33:23.632Z,3.10
2022-09-06T15:35:51.676Z,3.41
2022-09-06T15:38:19.372Z,3.50
2022-09-06T15:40:51.491Z,3.28
2022-09-06T15:43:19.259Z,2.99
2022-09-06T15:45:46.143Z,3.20
2022-09-06T15:48:14.786Z,3.12
2022-09-06T15:50:53.079Z,3.29
2022-09-06T15:53:24.302Z,3.47
2022-09-06T15:55:54.404Z,3.05
2022-09-06T15:58:25.047Z,3.29
2022-09-06T16:00:54.184Z,2.69
2022-09-06T16:03:21.576Z,3.03
2022-09-06T16:08:36.530Z,3.23
2022-09-06T16:11:03.736Z,2.43
2022-09-06T16:13:30.793Z,2.00
2022-09-06T16:15:59.822Z,2.10
2022-09-06T16:18:28.980Z,2.11
2022-09-06T16:20:56.010Z,2.11
2022-09-06T16:23:23.245Z,2.26
2022-09-06T16:25:51.537Z,2.00
2022-09-06T16:28:19.037Z,2.10
2022-09-06T16:30:45.886Z,1.88
2022-09-06T16:33:12.979Z,2.02
2022-09-06T16:35:42.146Z,2.13
2022-09-06T16:38:10.520Z,2.45
2022-09-06T16:40:37.379Z,2.29
2022-09-06T16:43:04.575Z,2.00
2022-09-06T16:45:34.275Z,2.19
2022-09-06T16:48:02.431Z,2.17
2022-09-06T16:50:31.298Z,1.88
2022-09-06T16:52:58.949Z,2.07
2022-09-06T16:55:26.273Z,2.01
2022-09-06T16:57:55.440Z,1.93
2022-09-06T17:00:23.280Z,1.98
2022-09-06T17:02:50.236Z,2.28
2022-09-06T17:05:17.480Z,2.62
2022-09-06T17:07:46.581Z,2.88
2022-09-06T17:10:13.638Z,2.40
2022-09-06T17:12:41.970Z,1.96
2022-09-06T17:15:15.184Z,1.96
2022-09-06T17:17:49.123Z,1.99
2022-09-06T17:20:35.634Z,2.23
2022-09-06T17:23:04.475Z,2.07
2022-09-06T17:25:31.113Z,2.39
2022-09-06T17:27:58.002Z,3.04
2022-09-06T17:30:24.950Z,2.79
2022-09-06T17:32:52.189Z,2.95
2022-09-06T17:35:18.980Z,2.97
2022-09-06T17:37:46.716Z,2.68
2022-09-06T17:40:15.747Z,2.41
2022-09-06T17:42:42.492Z,2.87
2022-09-06T17:45:12.182Z,2.89
2022-09-06T17:47:41.089Z,2.92
2022-09-06T17:50:07.749Z,3.08
2022-09-06T17:52:37.508Z,3.12
2022-09-06T17:55:06.325Z,2.46
2022-09-06T17:57:33.354Z,2.44
2022-09-06T18:00:00.022Z,2.43
2022-09-06T18:02:27.022Z,2.35
2022-09-06T18:04:54.055Z,2.59
2022-09-06T18:07:21.141Z,2.47
2022-09-06T18:09:48.088Z,2.35
2022-09-06T18:12:15.645Z,2.19
2022-09-06T18:14:42.991Z,2.44
2022-09-06T18:17:10.061Z,2.53
2022-09-06T18:19:37.601Z,2.63
2022-09-06T18:22:05.341Z,2.60
2022-09-06T18:27:41.446Z,2.65
2022-09-06T18:30:11.655Z,2.52
2022-09-06T18:32:47.108Z,2.67
2022-09-06T18:35:13.979Z,2.46
2022-09-06T18:43:47.392Z,2.64
2022-09-06T18:46:14.817Z,23.08
2022-09-06T18:48:45.984Z,44.48
2022-09-06T18:51:20.058Z,34.08
2022-09-06T18:53:47.248Z,34.95
2022-09-06T18:56:14.420Z,7.57
2022-09-06T18:58:42.031Z,5.07
2022-09-06T19:17:07.580Z,2.33
2022-09-06T19:19:56.921Z,2.86
2022-09-06T19:22:31.267Z,13.92
2022-09-06T19:24:59.495Z,11.27
2022-09-06T19:27:26.312Z,18.27
2022-09-06T19:29:53.342Z,17.95
2022-09-06T19:32:20.426Z,9.45
2022-09-06T19:34:55.669Z,7.08
2022-09-06T19:37:22.777Z,5.99
2022-09-06T19:39:52.805Z,14.70
2022-09-06T19:42:23.315Z,8.92
2022-09-06T19:44:50.208Z,7.13
2022-09-06T19:47:17.561Z,12.24
2022-09-06T19:53:06.606Z,70.98
2022-09-06T19:55:39.538Z,9.67
2022-09-06T20:00:46.691Z,94.28
2022-09-06T20:03:13.442Z,30.57
2022-09-06T20:05:40.814Z,78.60
2022-09-06T20:08:07.538Z,285.59
2022-09-06T20:10:34.204Z,776.46
2022-09-06T20:13:01.698Z,1390.67
2022-09-06T20:15:29.173Z,650.27
2022-09-06T20:17:55.741Z,333.04
2022-09-06T20:20:23.036Z,292.06
2022-09-06T20:22:57.054Z,1205.16
2022-09-06T20:25:23.983Z,224.47
2022-09-06T20:27:51.250Z,84.41
2022-09-06T20:30:18.831Z,114.24
2022-09-06T20:32:46.104Z,45.78
2022-09-06T20:35:12.965Z,273.83
2022-09-06T20:37:42.145Z,227.17
2022-09-06T20:40:08.690Z,66.97
2022-09-06T20:42:35.533Z,56.52
2022-09-06T20:45:09.197Z,161.49
2022-09-06T20:47:36.090Z,136.37
2022-09-06T20:50:02.985Z,68.95
2022-09-06T20:52:29.888Z,64.11
2022-09-06T20:54:57.472Z,303.96
2022-09-06T20:57:24.034Z,53.68
2022-09-06T20:59:51.052Z,142.00
2022-09-06T21:02:17.720Z,160.09
2022-09-06T21:04:44.458Z,139.67
2022-09-06T21:07:11.259Z,242.02
2022-09-06T21:09:37.811Z,174.19
2022-09-06T21:12:04.653Z,106.43
2022-09-06T21:14:38.843Z,188.20
2022-09-06T21:17:05.398Z,176.46
2022-09-06T21:19:32.297Z,72.28
2022-09-06T21:21:59.380Z,91.95
2022-09-06T21:24:26.160Z,81.36
2022-09-06T21:26:53.425Z,21.56
2022-09-06T21:29:20.733Z,37.38
2022-09-06T21:31:47.610Z,21.70
2022-09-06T21:34:17.245Z,13.55
2022-09-06T21:36:44.275Z,8.52
2022-09-06T21:39:10.763Z,13.52
2022-09-06T21:41:38.532Z,88.36
2022-09-06T21:44:05.359Z,49.22
2022-09-06T21:46:33.746Z,45.71
2022-09-06T21:49:00.637Z,20.24
2022-09-06T21:51:27.212Z,13.63
2022-09-06T21:53:54.803Z,10.01
2022-09-06T21:56:21.384Z,8.92
2022-09-06T21:58:48.365Z,5.99
2022-09-06T22:01:15.547Z,3.84
2022-09-06T22:03:42.868Z,3.86
2022-09-06T22:06:09.726Z,3.22
2022-09-06T22:08:36.793Z,2.66
2022-09-06T22:11:04.324Z,2.60
2022-09-06T22:13:38.063Z,2.85
2022-09-06T22:18:45.131Z,2.79
2022-09-06T22:21:12.096Z,2.98
2022-09-06T22:23:40.189Z,2.69
2022-09-06T22:26:09.088Z,2.73
2022-09-06T22:28:35.976Z,3.05
2022-09-06T22:31:02.729Z,2.96
2022-09-06T22:33:29.730Z,2.54
2022-09-06T22:35:56.628Z,2.63
2022-09-06T22:38:23.415Z,2.70
2022-09-06T22:40:49.980Z,2.74
2022-09-06T22:43:16.849Z,2.73
2022-09-06T22:45:45.746Z,2.78
2022-09-06T22:48:17.680Z,2.86
2022-09-06T22:50:45.251Z,2.72
2022-09-06T22:53:12.186Z,2.58
2022-09-06T22:55:38.771Z,2.73
2022-09-06T22:58:07.608Z,2.66
2022-09-06T23:00:37.903Z,2.53
2022-09-06T23:03:04.815Z,2.51
2022-09-06T23:05:32.847Z,2.52
2022-09-06T23:07:59.612Z,2.45
2022-09-06T23:10:26.462Z,2.64
2022-09-06T23:12:53.431Z,2.43
2022-09-06T23:15:20.796Z,2.35
2022-09-06T23:17:47.961Z,2.54
2022-09-06T23:20:14.813Z,2.49
2022-09-06T23:22:41.570Z,2.56
2022-09-06T23:25:08.337Z,2.55
2022-09-06T23:27:35.819Z,2.39
2022-09-06T23:30:02.709Z,2.33
2022-09-06T23:32:29.540Z,2.46
2022-09-06T23:34:56.407Z,2.31
2022-09-06T23:37:23.732Z,2.37
2022-09-06T23:39:51.007Z,2.29
2022-09-06T23:42:17.894Z,2.29
2022-09-06T23:44:45.282Z,2.60
2022-09-06T23:47:12.146Z,2.50
2022-09-06T23:49:39.040Z,2.20
2022-09-06T23:52:05.926Z,2.23
2022-09-06T23:54:32.703Z,2.35
2022-09-06T23:56:59.547Z,2.38
2022-09-06T23:59:28.474Z,2.41
